Time;durP1;ratioP1;P1;durP2;ratioP2;P2;SDS_P1;SDS_P2;PMS_P1;PMS_P2;Temp;Humidity;BMP_temperature;BMP_pressure;BME280_temperature;BME280_humidity;BME280_pressure;Samples;Min_cycle;Max_cycle;Signal;HPM_P1;HPM_P2
2022/06/04 00:00:48;;;;;;;1.42;1.25;;;;;;;14.85;89.04;101711.66;6226416;28;20057;-75
2022/06/04 00:03:49;;;;;;;1.52;1.20;;;;;;;14.74;89.60;101708.75;6226130;28;20046;-75
2022/06/04 00:06:50;;;;;;;1.80;1.40;;;;;;;14.68;90.25;101715.22;6226463;28;20553;-74
2022/06/04 00:16:29;;;;;;;;;;;;;;;14.56;91.84;101717.69;6226188;28;20082;-74
2022/06/04 00:19:31;;;;;;;1.88;1.35;;;;;;;14.54;92.40;101717.78;6226371;28;19929;-75
2022/06/04 00:22:32;;;;;;;2.63;1.55;;;;;;;14.54;92.07;101722.22;6225838;28;20046;-75
2022/06/04 00:25:37;;;;;;;3.15;1.58;;;;;;;14.52;92.58;101714.34;6224281;28;20429;-75
2022/06/04 00:28:39;;;;;;;2.67;1.40;;;;;;;14.41;92.95;101703.47;6226030;28;20046;-75
2022/06/04 00:31:40;;;;;;;2.72;1.48;;;;;;;14.38;93.32;101701.84;6225530;28;20053;-75
2022/06/04 00:34:42;;;;;;;1.92;1.38;;;;;;;14.40;94.30;101707.06;6225708;28;20049;-75
2022/06/04 00:37:43;;;;;;;3.03;1.48;;;;;;;14.41;93.83;101703.47;6225755;28;20433;-75
2022/06/04 00:40:49;;;;;;;2.80;1.40;;;;;;;14.32;93.43;101704.84;6225636;28;20049;-75
2022/06/04 00:43:58;;;;;;;2.42;1.55;;;;;;;14.30;94.67;101692.63;6225605;28;20049;-75
2022/06/04 00:47:10;;;;;;;2.50;1.98;;;;;;;14.38;94.32;101693.91;6226096;28;20050;-75
2022/06/04 00:50:14;;;;;;;2.03;1.60;;;;;;;14.36;93.48;101693.16;6225412;28;20050;-75
2022/06/04 00:53:16;;;;;;;3.03;1.52;;;;;;;14.32;92.92;101699.53;6225678;28;20053;-74
2022/06/04 00:56:27;;;;;;;1.63;1.42;;;;;;;14.19;92.87;101704.63;6223608;28;20050;-74
2022/06/04 00:59:38;;;;;;;2.58;1.70;;;;;;;14.15;93.07;101703.06;6225454;28;20050;-75
2022/06/04 01:02:52;;;;;;;1.85;1.45;;;;;;;14.11;93.16;101703.31;6225529;28;20049;-75
2022/06/04 01:06:07;;;;;;;1.80;1.45;;;;;;;14.16;93.30;101714.50;6225074;28;20046;-75
2022/06/04 01:09:29;;;;;;;1.73;1.20;;;;;;;14.07;93.11;101717.63;6224843;28;20057;-75
2022/06/04 01:12:51;;;;;;;2.30;1.50;;;;;;;14.07;93.13;101717.63;6224706;28;20501;-75
2022/06/04 01:16:00;;;;;;;2.08;1.63;;;;;;;13.99;92.70;101714.53;6224668;28;20410;-74
2022/06/04 01:19:19;;;;;;;3.15;1.60;;;;;;;13.95;92.75;101730.56;6224846;28;20065;-75
2022/06/04 01:22:39;;;;;;;1.75;1.48;;;;;;;13.93;92.86;101731.56;6224921;28;20049;-75
2022/06/04 01:25:48;;;;;;;;;;;;;;;13.91;93.07;101731.66;6224772;28;20046;-75
2022/06/04 01:28:56;;;;;;;;;;;;;;;13.86;92.60;101735.47;6225010;28;19921;-76
2022/06/04 01:32:03;;;;;;;2.47;1.67;;;;;;;13.80;92.97;101733.13;6224468;28;20408;-75
2022/06/04 01:35:12;;;;;;;2.78;1.75;;;;;;;13.78;93.52;101732.34;6223856;28;20057;-75
2022/06/04 01:38:20;;;;;;;5.70;1.58;;;;;;;13.82;93.07;101720.69;6224798;28;20042;-75
2022/06/04 01:41:27;;;;;;;1.60;1.50;;;;;;;13.78;93.21;101721.78;6223893;28;20512;-75
2022/06/04 01:44:34;;;;;;;2.03;1.63;;;;;;;13.69;93.59;101710.75;6224268;28;20053;-75
2022/06/04 01:47:37;;;;;;;1.80;1.65;;;;;;;13.64;94.13;101710.13;6224140;28;20061;-75
2022/06/04 01:50:43;;;;;;;2.78;2.25;;;;;;;13.59;94.44;101714.81;6223839;28;20045;-75
2022/06/04 01:53:46;;;;;;;2.50;1.60;;;;;;;13.63;94.43;101712.88;6223923;28;20061;-75
2022/06/04 01:56:52;;;;;;;1.40;1.27;;;;;;;13.56;94.81;101716.72;6223959;28;20050;-75
2022/06/04 01:59:58;;;;;;;1.60;1.40;;;;;;;13.48;95.09;101708.34;6223511;28;20050;-75
2022/06/04 02:03:06;;;;;;;2.97;2.00;;;;;;;13.40;95.55;101717.50;6224035;28;20045;-75
2022/06/04 02:06:12;;;;;;;2.08;1.38;;;;;;;13.35;96.42;101710.72;6223604;28;20425;-75
2022/06/04 02:09:16;;;;;;;3.67;2.03;;;;;;;13.37;97.01;101720.28;6223584;28;20068;-74
2022/06/04 02:12:19;;;;;;;2.53;1.25;;;;;;;13.41;95.58;101734.19;6221907;28;20057;-75
2022/06/04 02:15:28;;;;;;;4.53;1.70;;;;;;;13.41;95.39;101723.66;6219551;28;20132;-76
2022/06/04 02:18:30;;;;;;;2.83;1.90;;;;;;;13.42;95.53;101728.00;6223790;28;20046;-75
2022/06/04 02:21:32;;;;;;;4.20;1.90;;;;;;;13.41;94.63;101719.22;6222830;28;20048;-75
2022/06/04 02:24:33;;;;;;;2.30;1.75;;;;;;;13.30;94.57;101734.72;6223326;28;20053;-75
2022/06/04 02:27:35;;;;;;;4.72;2.28;;;;;;;13.29;95.62;101745.34;6223512;28;20414;-75
2022/06/04 02:30:48;;;;;;;2.92;1.80;;;;;;;13.23;95.52;101743.88;6222385;28;20059;-75
2022/06/04 02:33:55;;;;;;;3.22;2.35;;;;;;;13.17;95.46;101747.66;6216078;28;20050;-74
2022/06/04 02:37:03;;;;;;;3.58;2.40;;;;;;;13.14;95.98;101768.91;6223445;28;20054;-75
2022/06/04 02:40:09;;;;;;;4.70;2.20;;;;;;;13.21;97.05;101759.72;6222999;28;20056;-75
2022/06/04 02:43:17;;;;;;;2.22;2.03;;;;;;;13.26;95.92;101745.50;6223054;28;20081;-75
2022/06/04 02:46:27;;;;;;;3.20;2.00;;;;;;;13.20;97.13;101746.63;6222845;28;20057;-75
2022/06/04 02:49:38;;;;;;;4.55;1.85;;;;;;;13.15;98.21;101757.41;6223373;28;20481;-75
2022/06/04 02:52:41;;;;;;;2.53;1.85;;;;;;;13.05;99.05;101766.69;6222839;28;20053;-75
2022/06/04 02:55:48;;;;;;;5.03;1.90;;;;;;;13.03;99.76;101772.97;6222415;28;20046;-75
2022/06/04 02:58:54;;;;;;;2.75;1.98;;;;;;;12.87;100.00;101763.13;6223238;28;20050;-75
2022/06/04 03:02:02;;;;;;;4.22;2.40;;;;;;;12.84;100.00;101768.53;6222658;28;20057;-75
2022/06/04 03:05:10;;;;;;;2.38;1.77;;;;;;;12.79;100.00;101769.69;6222346;28;20517;-75
2022/06/04 03:08:12;;;;;;;2.28;1.90;;;;;;;12.71;100.00;101764.75;6222756;28;20074;-74
2022/06/04 03:11:13;;;;;;;2.92;2.10;;;;;;;12.64;100.00;101769.47;6222335;28;20046;-75
2022/06/04 03:14:17;;;;;;;5.78;2.35;;;;;;;12.62;100.00;101768.66;6222095;28;20052;-75
2022/06/04 03:17:20;;;;;;;3.13;2.45;;;;;;;12.69;100.00;101769.25;6222511;28;20053;-75
2022/06/04 03:20:23;;;;;;;3.70;2.13;;;;;;;12.59;100.00;101766.19;6221366;28;20054;-76
2022/06/04 03:23:25;;;;;;;3.95;2.78;;;;;;;12.57;100.00;101772.44;6222318;28;20045;-75
2022/06/04 03:26:26;;;;;;;5.10;2.17;;;;;;;12.65;100.00;101775.59;6221921;28;20049;-75
2022/06/04 03:29:27;;;;;;;4.22;2.72;;;;;;;12.58;100.00;101769.75;6222447;28;20421;-76
2022/06/04 03:32:30;;;;;;;2.95;1.80;;;;;;;12.49;100.00;101780.72;6221874;28;20048;-74
2022/06/04 03:35:32;;;;;;;3.08;2.20;;;;;;;12.44;100.00;101775.66;6220887;28;20517;-75
2022/06/04 03:38:33;;;;;;;3.65;2.03;;;;;;;12.40;100.00;101775.84;6220619;28;20083;-75
2022/06/04 03:41:35;;;;;;;4.05;2.30;;;;;;;12.39;100.00;101774.97;6220332;28;20417;-74
2022/06/04 03:44:36;;;;;;;2.83;2.00;;;;;;;12.41;100.00;101772.28;6221492;28;20054;-74
2022/06/04 03:47:40;;;;;;;5.13;2.45;;;;;;;12.44;100.00;101772.13;6221881;28;20054;-75
2022/06/04 03:50:41;;;;;;;4.43;2.80;;;;;;;12.40;100.00;101763.53;6221730;28;20061;-75
2022/06/04 03:53:42;;;;;;;4.57;2.40;;;;;;;12.37;100.00;101762.81;6221667;28;20046;-75
2022/06/04 03:57:37;;;;;;;3.97;2.20;;;;;;;12.37;100.00;101757.53;6222001;28;20053;-75
2022/06/04 04:00:08;;;;;;;3.33;2.15;;;;;;;12.27;100.00;101758.88;6220755;28;20049;-74
2022/06/04 04:03:15;;;;;;;3.60;2.10;;;;;;;12.28;100.00;101761.44;6221546;28;20482;-74
2022/06/04 04:06:19;;;;;;;4.47;2.90;;;;;;;12.33;100.00;101748.91;6221005;28;20069;-75
2022/06/04 04:09:20;;;;;;;4.40;2.58;;;;;;;12.28;100.00;101758.78;6222111;28;20057;-74
2022/06/04 04:12:22;;;;;;;3.55;2.30;;;;;;;12.28;100.00;101757.94;6221390;28;20049;-74
2022/06/04 04:15:24;;;;;;;3.88;2.53;;;;;;;12.32;100.00;101756.88;6221700;28;20081;-74
2022/06/04 04:18:26;;;;;;;6.75;2.50;;;;;;;12.41;100.00;101753.84;6221916;28;20057;-74
2022/06/04 04:21:28;;;;;;;4.40;2.67;;;;;;;12.41;100.00;101753.84;6221573;28;20050;-75
2022/06/04 04:24:29;;;;;;;5.85;3.05;;;;;;;12.40;100.00;101755.63;6221207;28;20054;-74
2022/06/04 04:27:30;;;;;;;4.25;2.85;;;;;;;12.36;100.00;101745.28;6221830;28;20485;-75
2022/06/04 04:30:34;;;;;;;3.70;2.60;;;;;;;12.40;100.00;101744.22;6222089;28;20050;-75
2022/06/04 04:33:36;;;;;;;4.68;2.92;;;;;;;12.43;100.00;101739.66;6226108;28;20468;-75
2022/06/04 04:36:38;;;;;;;6.78;2.95;;;;;;;12.45;100.00;101742.22;6225850;28;20061;-75
2022/06/04 04:39:39;;;;;;;5.72;2.95;;;;;;;12.46;100.00;101751.00;6225761;28;20437;-74
2022/06/04 04:42:41;;;;;;;7.22;2.97;;;;;;;12.43;100.00;101744.91;6225865;28;20505;-74
2022/06/04 04:45:43;;;;;;;4.82;2.80;;;;;;;12.46;100.00;101751.84;6225292;28;20053;-74
2022/06/04 04:48:48;;;;;;;4.53;2.67;;;;;;;12.55;100.00;101756.69;6226088;28;20056;-75
2022/06/04 04:51:49;;;;;;;2.80;2.22;;;;;;;12.61;100.00;101756.41;6225302;28;20052;-75
2022/06/04 04:54:51;;;;;;;9.18;4.45;;;;;;;12.63;100.00;101749.31;6225277;28;20045;-75
2022/06/04 04:57:52;;;;;;;5.05;2.70;;;;;;;12.66;100.00;101748.28;6225423;28;20058;-75
2022/06/04 05:00:53;;;;;;;3.35;2.72;;;;;;;12.69;100.00;101764.84;6225397;28;20058;-75
2022/06/04 05:03:56;;;;;;;3.47;2.50;;;;;;;12.69;100.00;101764.84;6225134;28;20042;-75
2022/06/04 05:06:58;;;;;;;5.95;2.63;;;;;;;12.75;100.00;101771.59;6224815;28;20118;-75
2022/06/04 05:09:59;;;;;;;3.78;2.40;;;;;;;12.83;100.00;101780.03;6224799;28;20054;-75
2022/06/04 05:13:00;;;;;;;4.90;2.92;;;;;;;12.87;100.00;101786.03;6225069;28;20413;-74
2022/06/04 05:16:02;;;;;;;4.05;2.75;;;;;;;12.86;100.00;101789.59;6224582;28;20050;-75
2022/06/04 05:19:05;;;;;;;3.67;2.65;;;;;;;12.84;100.00;101779.09;6224494;28;20521;-75
2022/06/04 05:22:06;;;;;;;4.60;2.63;;;;;;;12.87;100.00;101783.38;6224312;28;20061;-75
2022/06/04 05:25:09;;;;;;;3.90;2.95;;;;;;;12.99;100.00;101782.81;6224353;28;20046;-75
2022/06/04 05:28:10;;;;;;;5.35;3.25;;;;;;;13.02;100.00;101795.00;6224902;28;20050;-75
2022/06/04 05:31:12;;;;;;;3.83;2.63;;;;;;;13.04;100.00;101793.16;6224281;28;20057;-75
2022/06/04 05:34:16;;;;;;;4.82;3.00;;;;;;;13.07;100.00;101795.63;6224713;28;20068;-75
2022/06/04 05:37:18;;;;;;;5.75;3.30;;;;;;;13.12;100.00;101788.34;6224593;28;20490;-75
2022/06/04 05:40:19;;;;;;;3.35;2.78;;;;;;;13.20;100.00;101779.16;6224479;28;20045;-75
2022/06/04 05:43:21;;;;;;;5.32;3.30;;;;;;;13.24;100.00;101784.31;6223420;28;20042;-74
2022/06/04 05:46:22;;;;;;;4.65;2.88;;;;;;;13.29;100.00;101775.25;6199618;28;20050;-75
2022/06/04 05:49:25;;;;;;;5.32;3.83;;;;;;;13.26;100.00;101785.09;6200144;28;20054;-75
2022/06/04 05:52:27;;;;;;;5.57;3.10;;;;;;;13.32;100.00;101758.41;6199566;28;20047;-74
2022/06/04 05:55:28;;;;;;;4.07;2.42;;;;;;;13.42;100.00;101773.72;6199724;28;20077;-75
2022/06/04 05:58:29;;;;;;;4.50;3.10;;;;;;;13.50;100.00;101767.22;6199730;28;20053;-75
2022/06/04 06:01:33;;;;;;;6.72;3.22;;;;;;;13.56;100.00;101774.84;6199521;28;20442;-74
2022/06/04 06:04:35;;;;;;;6.68;2.60;;;;;;;13.61;100.00;101778.09;6199198;28;20046;-75
2022/06/04 06:07:37;;;;;;;2.88;2.20;;;;;;;13.67;100.00;101794.53;6199634;28;20054;-75
2022/06/04 06:10:39;;;;;;;5.88;3.05;;;;;;;13.77;100.00;101809.91;6199138;28;20050;-75
2022/06/04 06:13:42;;;;;;;6.07;2.65;;;;;;;13.83;100.00;101801.66;6201639;28;20129;-73
2022/06/04 06:16:46;;;;;;;3.50;2.33;;;;;;;13.87;100.00;101812.00;6221705;28;20054;-75
2022/06/04 06:19:48;;;;;;;5.70;2.30;;;;;;;13.94;100.00;101808.13;6223854;28;20061;-75
2022/06/04 06:22:50;;;;;;;5.40;2.78;;;;;;;13.99;99.30;101829.06;6223582;28;20504;-75
2022/06/04 06:25:51;;;;;;;7.88;2.92;;;;;;;14.05;99.38;101825.25;6223051;28;20061;-75
2022/06/04 06:28:53;;;;;;;3.97;2.53;;;;;;;14.09;98.12;101838.22;6223529;28;20049;-75
2022/06/04 06:31:56;;;;;;;4.55;2.75;;;;;;;14.11;97.53;101840.78;6222995;28;20125;-75
2022/06/04 06:34:59;;;;;;;4.88;2.80;;;;;;;14.20;97.69;101835.88;6223287;28;20073;-75
2022/06/04 06:38:00;;;;;;;4.25;2.45;;;;;;;14.26;96.64;101844.41;6223135;28;20053;-75
2022/06/04 06:41:03;;;;;;;4.82;2.78;;;;;;;14.27;95.54;101843.50;6223128;28;20056;-75
2022/06/04 06:44:05;;;;;;;4.22;3.08;;;;;;;14.32;95.90;101846.78;6222428;28;20489;-75
2022/06/04 06:47:07;;;;;;;4.75;2.65;;;;;;;14.38;95.42;101854.38;6223389;28;20061;-76
2022/06/04 06:50:11;;;;;;;6.97;2.95;;;;;;;14.44;95.21;101862.00;6222650;28;20057;-75
2022/06/04 06:53:12;;;;;;;5.55;2.67;;;;;;;14.49;94.74;101864.44;6223482;28;20049;-75
2022/06/04 06:56:15;;;;;;;3.53;2.60;;;;;;;14.55;92.74;101870.28;6275533;23;20053;-71
2022/06/04 06:59:20;;;;;;;4.32;2.25;;;;;;;14.63;93.74;101861.94;6198482;28;20057;-71
2022/06/04 07:02:21;;;;;;;8.75;2.78;;;;;;;14.73;93.90;101868.44;6215256;28;20057;-71
2022/06/04 07:05:24;;;;;;;4.57;2.45;;;;;;;14.81;92.88;101868.06;6222483;28;20057;-71
2022/06/04 07:08:25;;;;;;;6.97;3.20;;;;;;;14.90;90.97;101872.84;6192117;28;20421;-71
2022/06/04 07:11:27;;;;;;;6.72;3.10;;;;;;;14.97;90.74;101875.06;6197944;28;20642;-71
2022/06/04 07:14:29;;;;;;;4.85;2.58;;;;;;;15.03;90.51;101867.72;6196942;28;20395;-71
2022/06/04 07:17:30;;;;;;;3.67;2.53;;;;;;;15.07;90.17;101864.84;6197563;28;20426;-71
2022/06/04 07:20:33;;;;;;;5.10;2.95;;;;;;;15.07;90.52;101854.25;6197589;28;20057;-71
2022/06/04 07:23:36;;;;;;;3.55;2.25;;;;;;;15.13;89.39;101871.63;6197543;28;20053;-71
2022/06/04 07:26:38;;;;;;;2.97;2.30;;;;;;;15.24;88.28;101866.56;6197644;28;20072;-71
2022/06/04 07:29:39;;;;;;;3.78;2.60;;;;;;;15.30;86.63;101860.06;6197658;28;20058;-71
2022/06/04 07:32:41;;;;;;;3.67;2.60;;;;;;;15.35;87.07;101856.25;6192773;28;20050;-70
2022/06/04 07:35:48;;;;;;;2.80;2.42;;;;;;;15.44;85.86;101858.41;6196559;28;20058;-71
2022/06/04 07:38:49;;;;;;;5.43;2.30;;;;;;;15.51;85.23;101855.38;6197312;28;20042;-70
2022/06/04 07:41:53;;;;;;;3.05;1.92;;;;;;;15.56;86.60;101856.84;6193698;28;20480;-71
2022/06/04 07:44:56;;;;;;;5.75;2.08;;;;;;;15.60;86.26;101868.13;6196057;28;20038;-72
2022/06/04 07:47:57;;;;;;;4.20;2.53;;;;;;;15.70;83.67;101864.03;6194796;28;20504;-72
2022/06/04 07:51:04;;;;;;;3.60;2.10;;;;;;;15.79;83.60;101868.81;6192335;28;20057;-71
2022/06/04 07:54:08;;;;;;;6.40;2.65;;;;;;;15.88;83.34;101876.22;6189220;28;20047;-71
2022/06/04 07:57:09;;;;;;;5.82;2.30;;;;;;;15.99;81.74;101875.63;6196060;28;20051;-72
2022/06/04 08:00:12;;;;;;;2.60;1.80;;;;;;;16.07;81.07;101868.06;6192039;28;20050;-70
2022/06/04 08:03:13;;;;;;;3.53;2.22;;;;;;;16.12;80.21;101875.75;6195839;28;20065;-71
2022/06/04 08:06:18;;;;;;;4.70;1.83;;;;;;;16.20;79.93;101877.00;6192362;28;20042;-71
2022/06/04 08:09:20;;;;;;;5.22;2.50;;;;;;;16.27;79.63;101881.97;6202389;28;20050;-71
2022/06/04 08:12:23;;;;;;;5.00;2.33;;;;;;;16.31;79.38;101865.78;6202001;28;20421;-71
2022/06/04 08:15:24;;;;;;;2.30;1.60;;;;;;;16.39;79.90;101871.47;6201377;28;20501;-71
2022/06/04 08:18:25;;;;;;;3.83;2.15;;;;;;;16.54;78.84;101868.84;6202207;28;20137;-71
2022/06/04 08:21:28;;;;;;;7.35;2.72;;;;;;;16.64;74.90;101872.66;6201558;28;20057;-71
2022/06/04 08:24:31;;;;;;;5.15;2.13;;;;;;;16.66;75.54;101868.94;6201663;28;20046;-71
2022/06/04 08:27:32;;;;;;;3.42;2.30;;;;;;;16.75;76.75;101872.88;6179168;28;20054;-71
2022/06/04 08:30:34;;;;;;;3.20;2.20;;;;;;;16.83;78.01;101864.44;6184156;28;20421;-71
2022/06/04 08:33:37;;;;;;;3.45;2.28;;;;;;;16.84;77.71;101861.69;6200500;28;20042;-71
2022/06/04 08:36:41;;;;;;;2.80;2.35;;;;;;;16.81;78.33;101861.03;6197150;28;20046;-71
2022/06/04 08:39:43;;;;;;;3.95;2.50;;;;;;;16.90;78.64;101857.81;6193787;28;20522;-69
2022/06/04 08:42:58;;;;;;;3.97;2.25;;;;;;;17.01;78.59;101862.44;6200661;28;20057;-72
2022/06/04 08:46:01;;;;;;;2.83;1.80;;;;;;;17.15;76.27;101860.63;6201171;28;20058;-71
2022/06/04 08:49:11;;;;;;;4.85;2.30;;;;;;;17.23;77.49;101861.00;6196065;28;20058;-71
2022/06/04 08:52:17;;;;;;;3.28;1.73;;;;;;;17.28;76.58;101862.50;6201024;28;20486;-71
2022/06/04 08:59:02;;;;;;;5.45;2.35;;;;;;;17.43;74.35;101867.69;6201392;28;20054;-71
2022/06/04 09:02:12;;;;;;;3.92;2.00;;;;;;;17.48;74.27;101870.91;6200812;28;20054;-71
2022/06/04 09:05:20;;;;;;;4.63;1.85;;;;;;;17.61;74.58;101865.66;6200677;28;20395;-70
2022/06/04 09:08:36;;;;;;;4.40;1.90;;;;;;;17.74;75.34;101877.22;6201140;28;20506;-70
2022/06/04 09:11:45;;;;;;;2.15;1.70;;;;;;;17.89;74.53;101858.53;6180567;28;20666;-70
2022/06/04 09:14:52;;;;;;;2.45;1.73;;;;;;;17.95;71.47;101858.16;6197236;28;20062;-70
2022/06/04 09:17:54;;;;;;;3.97;2.45;;;;;;;17.98;69.59;101853.47;6199147;28;20525;-72
2022/06/04 09:20:59;;;;;;;3.00;2.17;;;;;;;18.05;69.72;101859.25;6200653;28;20046;-70
2022/06/04 09:24:02;;;;;;;4.57;2.58;;;;;;;18.20;70.31;101860.00;6200075;28;20141;-73
2022/06/04 09:27:15;;;;;;;2.47;2.05;;;;;;;18.27;68.60;101858.66;6200659;28;20065;-73
2022/06/04 09:30:23;;;;;;;3.63;2.20;;;;;;;18.27;69.30;101861.31;6200187;28;20050;-73
2022/06/04 09:33:40;;;;;;;2.75;2.00;;;;;;;18.41;71.01;101863.88;6193221;28;20050;-72
2022/06/04 09:36:45;;;;;;;3.72;1.73;;;;;;;18.59;69.72;101871.56;6196697;28;20054;-72
2022/06/04 09:40:01;;;;;;;4.40;2.15;;;;;;;18.71;66.90;101863.63;6199753;28;20053;-72
2022/06/04 09:43:08;;;;;;;4.57;2.00;;;;;;;18.79;67.85;101871.03;6199563;28;20050;-72
2022/06/04 09:46:09;;;;;;;3.20;1.60;;;;;;;18.85;68.75;101875.97;6199847;28;20054;-70
2022/06/04 09:49:29;;;;;;;2.38;1.55;;;;;;;18.96;67.87;101872.53;6200062;28;20410;-71
2022/06/04 09:52:37;;;;;;;5.30;2.75;;;;;;;19.05;67.87;101874.53;6199560;28;20061;-73
2022/06/04 09:55:46;;;;;;;2.33;1.40;;;;;;;19.15;68.01;101874.72;6197649;28;20512;-72
2022/06/04 09:58:50;;;;;;;3.60;2.30;;;;;;;19.09;65.98;101867.19;6195814;28;20050;-73
2022/06/04 10:01:57;;;;;;;5.97;2.28;;;;;;;19.13;67.19;101879.34;6199355;28;20046;-73
2022/06/04 10:05:02;;;;;;;3.13;2.13;;;;;;;19.16;67.66;101876.44;6199309;28;20047;-73
2022/06/04 10:08:12;;;;;;;3.83;2.38;;;;;;;19.17;66.27;101879.00;6199542;28;20201;-74
2022/06/04 10:11:18;;;;;;;;;;;;;;;19.21;67.03;101874.28;6199834;28;20050;-70
2022/06/04 10:14:28;;;;;;;3.25;2.42;;;;;;;19.22;64.85;101886.66;6198562;28;20382;-73
2022/06/04 10:17:38;;;;;;;3.03;2.03;;;;;;;19.20;66.85;101881.44;6199578;28;20050;-73
2022/06/04 10:20:40;;;;;;;3.63;2.30;;;;;;;19.48;67.28;101888.31;6197130;28;20426;-75
2022/06/04 10:23:44;;;;;;;4.38;2.05;;;;;;;19.76;67.23;101881.84;6191181;28;20057;-72
2022/06/04 10:26:58;;;;;;;3.58;1.55;;;;;;;19.94;64.86;101884.94;6199011;28;20061;-72
2022/06/04 10:30:14;;;;;;;3.97;2.25;;;;;;;19.98;64.18;101894.44;6198703;28;20148;-73
2022/06/04 10:33:24;;;;;;;5.60;2.33;;;;;;;20.02;63.45;101882.53;6199086;28;20494;-73
2022/06/04 10:36:38;;;;;;;2.85;2.10;;;;;;;20.05;63.67;101886.81;6198807;28;20141;-73
2022/06/04 10:39:51;;;;;;;6.30;2.40;;;;;;;20.20;62.82;101885.63;6198877;28;20050;-73
2022/06/04 10:43:06;;;;;;;3.55;1.98;;;;;;;20.40;63.01;101889.47;6198629;28;20053;-73
2022/06/04 10:46:14;;;;;;;4.40;1.88;;;;;;;20.42;61.12;101890.19;6195281;28;20046;-74
2022/06/04 10:49:34;;;;;;;3.70;2.10;;;;;;;20.44;61.20;101876.75;6196992;28;20058;-73
2022/06/04 10:52:42;;;;;;;7.47;2.10;;;;;;;20.60;60.71;101895.13;6198472;28;20080;-74
2022/06/04 10:55:47;;;;;;;3.75;1.90;;;;;;;20.58;59.95;101879.22;6192674;28;20050;-73
2022/06/04 10:58:56;;;;;;;3.13;2.05;;;;;;;20.68;60.29;101882.88;6198515;28;20058;-73
2022/06/04 11:02:03;;;;;;;2.55;1.60;;;;;;;20.97;60.87;101877.91;6192180;28;20516;-73
2022/06/04 11:05:12;;;;;;;3.28;1.70;;;;;;;21.07;55.73;101878.00;6197667;28;20050;-73
2022/06/04 11:08:20;;;;;;;7.47;2.17;;;;;;;21.20;55.58;101876.06;6193322;28;20053;-73
2022/06/04 11:11:27;;;;;;;3.20;2.17;;;;;;;21.33;53.99;101880.47;6197766;28;20061;-75
2022/06/04 11:14:39;;;;;;;3.53;1.65;;;;;;;21.47;54.61;101870.34;6188204;28;20050;-73
2022/06/04 11:17:46;;;;;;;4.28;2.22;;;;;;;21.65;54.41;101867.13;6190116;28;20446;-73
2022/06/04 11:20:54;;;;;;;3.58;1.95;;;;;;;21.82;53.27;101868.44;6197654;28;20054;-73
2022/06/04 11:24:01;;;;;;;5.30;1.70;;;;;;;22.17;53.17;101861.00;6185715;28;20499;-73
2022/06/04 11:27:13;;;;;;;3.90;1.25;;;;;;;22.71;52.48;101857.25;6174848;28;20051;-71
2022/06/04 11:30:22;;;;;;;4.47;1.80;;;;;;;22.91;50.21;101854.66;6171752;28;20050;-71
2022/06/04 11:33:35;;;;;;;6.30;1.77;;;;;;;23.18;50.78;101856.75;6173872;28;20058;-71
2022/06/04 11:36:47;;;;;;;3.35;1.88;;;;;;;23.32;46.40;101856.34;6173220;28;20051;-71
2022/06/04 11:40:01;;;;;;;6.20;2.30;;;;;;;23.26;46.52;101854.22;6172808;28;20053;-72
2022/06/04 11:43:14;;;;;;;2.95;1.63;;;;;;;23.40;47.54;101863.72;6173772;28;20066;-72
2022/06/04 11:46:32;;;;;;;3.85;1.98;;;;;;;23.40;45.81;101859.19;6173151;28;20438;-72
2022/06/04 11:49:41;;;;;;;3.60;1.83;;;;;;;24.00;47.23;101865.34;6173426;28;20051;-72
2022/06/04 11:52:52;;;;;;;3.08;2.25;;;;;;;23.93;44.61;101864.19;6197055;28;20057;-72
2022/06/04 11:55:58;;;;;;;2.40;1.92;;;;;;;24.02;46.24;101857.97;6220711;28;20062;-72
2022/06/04 11:59:20;;;;;;;2.90;1.98;;;;;;;24.35;45.14;101866.59;6213614;28;20046;-72
2022/06/04 12:02:26;;;;;;;2.97;1.90;;;;;;;24.77;44.46;101867.06;6207392;28;20058;-72
2022/06/04 12:05:41;;;;;;;4.65;2.45;;;;;;;24.84;43.65;101867.28;6189452;28;20050;-72
2022/06/04 12:08:47;;;;;;;2.85;1.75;;;;;;;24.98;45.38;101865.97;6197177;28;20057;-71
2022/06/04 12:11:55;;;;;;;3.90;2.38;;;;;;;24.95;42.75;101861.75;6196958;28;20054;-71
2022/06/04 12:15:04;;;;;;;5.22;2.45;;;;;;;24.69;41.92;101866.94;6195821;28;20418;-72
2022/06/04 12:18:22;;;;;;;3.40;2.20;;;;;;;24.76;42.88;101860.00;6197173;28;20058;-72
2022/06/04 12:24:59;;;;;;;3.30;1.83;;;;;;;25.24;43.09;101864.31;6196634;28;20491;-71
2022/06/04 12:28:03;;;;;;;2.78;1.75;;;;;;;25.32;42.12;101855.50;6196690;28;20562;-72
2022/06/04 12:31:04;;;;;;;1.98;1.30;;;;;;;25.29;41.13;101858.47;6196614;28;20530;-72
2022/06/04 12:34:26;;;;;;;3.75;2.20;;;;;;;25.01;42.00;101855.75;6190565;28;20061;-72
2022/06/04 12:37:29;;;;;;;3.50;2.13;;;;;;;25.20;42.04;101849.47;6196903;28;20184;-72
2022/06/04 12:40:35;;;;;;;3.72;2.08;;;;;;;25.22;42.38;101854.72;6196430;28;20057;-72
2022/06/04 12:43:38;;;;;;;1.77;1.50;;;;;;;25.38;41.77;101859.41;6196916;28;20046;-72
2022/06/04 12:46:39;;;;;;;2.83;1.90;;;;;;;25.33;41.56;101856.34;6196302;28;20050;-72
2022/06/04 12:49:52;;;;;;;2.83;2.10;;;;;;;25.36;41.16;101853.34;6196564;28;20057;-72
2022/06/04 12:53:01;;;;;;;2.72;1.90;;;;;;;25.34;42.48;101864.25;6197647;28;20050;-71
2022/06/04 12:56:06;;;;;;;2.78;1.65;;;;;;;25.41;42.52;101854.59;6200195;28;20066;-71
2022/06/04 12:59:37;;;;;;;3.03;1.73;;;;;;;25.79;42.59;101861.53;6234888;23;20050;-75
2022/06/04 13:02:42;;;;;;;2.85;1.52;;;;;;;25.94;39.90;101855.63;6213555;28;20470;-74
2022/06/04 13:06:03;;;;;;;2.20;1.52;;;;;;;25.63;39.68;101850.59;6221503;28;20053;-75
2022/06/04 13:09:15;;;;;;;1.35;1.20;;;;;;;25.70;39.00;101865.13;6205762;28;20039;-75
2022/06/04 13:12:31;;;;;;;4.30;2.00;;;;;;;25.86;39.33;101850.19;6200386;28;20057;-74
2022/06/04 13:15:44;;;;;;;4.38;2.10;;;;;;;25.60;40.19;101850.06;6197689;28;20038;-75
2022/06/04 13:18:56;;;;;;;2.15;1.70;;;;;;;25.43;39.49;101849.03;6194144;28;20054;-74
2022/06/04 13:22:00;;;;;;;1.65;1.48;;;;;;;25.36;40.18;101850.66;6200586;28;20109;-75
2022/06/04 13:25:05;;;;;;;3.65;2.00;;;;;;;25.25;38.82;101844.50;6200402;28;20051;-75
2022/06/04 13:28:24;;;;;;;1.65;1.30;;;;;;;25.26;40.39;101838.13;6206582;28;20042;-75
2022/06/04 13:31:29;;;;;;;;;;;;;;;25.35;40.46;101833.66;6202649;28;20061;-74
2022/06/04 13:34:34;;;;;;;2.50;1.45;;;;;;;25.53;40.80;101828.31;6200290;28;19921;-74
2022/06/04 13:37:37;;;;;;;3.92;1.80;;;;;;;25.92;40.23;101823.44;6196294;28;20054;-74
2022/06/04 13:40:38;;;;;;;3.28;1.75;;;;;;;25.79;38.78;101825.69;6196885;28;20046;-75
2022/06/04 13:43:42;;;;;;;3.53;1.77;;;;;;;25.88;39.35;101834.69;6186080;28;20058;-77
2022/06/04 13:46:44;;;;;;;1.95;1.67;;;;;;;25.71;39.01;101821.06;6198029;28;20087;-74
2022/06/04 13:49:48;;;;;;;2.00;1.33;;;;;;;25.98;40.46;101817.47;6198922;28;20050;-73
2022/06/04 13:52:54;;;;;;;3.47;1.70;;;;;;;26.03;38.99;101819.69;6200196;28;20156;-74
2022/06/04 13:55:58;;;;;;;1.58;1.38;;;;;;;25.78;38.18;101826.69;6199781;28;20057;-74
2022/06/04 13:59:00;;;;;;;1.88;1.45;;;;;;;25.64;38.63;101811.91;6216529;28;20058;-74
2022/06/04 14:02:04;;;;;;;4.82;1.48;;;;;;;25.61;38.33;101824.81;6197303;28;20060;-74
2022/06/04 14:08:33;;;;;;;2.63;1.85;;;;;;;26.16;39.36;101824.63;6199499;28;20062;-74
2022/06/04 14:11:47;;;;;;;1.50;1.35;;;;;;;26.39;37.69;101823.13;6197310;28;20046;-74
2022/06/04 14:15:03;;;;;;;2.00;1.40;;;;;;;26.68;39.14;101820.13;6192577;28;20058;-74
2022/06/04 14:18:35;;;;;;;1.35;1.25;;;;;;;26.40;35.68;101816.72;6193179;28;20513;-74
2022/06/04 14:21:53;;;;;;;1.42;1.20;;;;;;;26.00;37.49;101810.06;6189740;28;20051;-74
2022/06/04 14:25:08;;;;;;;1.92;1.52;;;;;;;25.66;37.51;101815.31;6196481;28;20050;-74
2022/06/04 14:28:30;;;;;;;1.48;1.23;;;;;;;25.71;36.99;101814.84;6218334;28;20050;-74
2022/06/04 14:31:42;;;;;;;1.50;1.10;;;;;;;25.62;38.27;101810.34;6223322;28;20050;-74
2022/06/04 14:34:45;;;;;;;1.08;0.98;;;;;;;25.98;37.83;101805.81;6223042;28;20057;-74
2022/06/04 14:37:49;;;;;;;0.95;0.90;;;;;;;26.26;36.97;101811.94;6223235;28;20141;-74
2022/06/04 14:41:00;;;;;;;3.45;1.30;;;;;;;25.96;35.97;101807.84;6198945;28;20046;-75